Time;durP1;ratioP1;P1;durP2;ratioP2;P2;SDS_P1;SDS_P2;PMS_P1;PMS_P2;Temp;Humidity;BMP_temperature;BMP_pressure;BME280_temperature;BME280_humidity;BME280_pressure;Samples;Min_cycle;Max_cycle;Signal;HPM_P1;HPM_P2
2022/12/05 00:01:43;;;;;;;20.07;11.70;;;6.80;99.90;;;4.49;98.05;100713.22;10590264;27;20056;-80
2022/12/05 00:06:46;;;;;;;20.03;10.53;;;6.80;99.90;;;4.49;98.19;100721.13;10614228;27;20152;-81
2022/12/05 00:11:49;;;;;;;20.37;10.13;;;6.70;99.90;;;4.46;98.30;100716.09;10615798;27;20525;-80
2022/12/05 00:16:52;;;;;;;18.30;10.10;;;6.70;99.90;;;4.45;98.34;100717.06;10594575;27;20060;-80
2022/12/05 00:21:56;;;;;;;19.63;11.27;;;6.70;99.90;;;4.39;98.30;100714.91;10602826;27;20065;-80
2022/12/05 00:26:59;;;;;;;20.57;10.80;;;6.60;99.90;;;4.38;98.40;100717.63;10609510;27;20056;-80
2022/12/05 00:32:02;;;;;;;19.73;10.47;;;6.60;99.90;;;4.34;98.72;100709.13;10611753;27;20055;-80
2022/12/05 00:37:05;;;;;;;18.07;10.10;;;6.60;99.90;;;4.31;98.61;100704.09;10596102;27;20052;-80
2022/12/05 00:42:08;;;;;;;18.07;9.47;;;6.50;99.90;;;4.30;98.83;100702.41;10577838;27;20060;-80
2022/12/05 00:47:11;;;;;;;17.67;8.93;;;6.50;99.90;;;4.30;98.62;100699.78;10612870;27;20502;-80
2022/12/05 00:52:14;;;;;;;15.20;8.70;;;6.50;99.90;;;4.27;98.71;100703.50;10639871;27;20056;-80
2022/12/05 00:57:16;;;;;;;15.67;8.07;;;6.50;99.90;;;4.26;98.62;100708.88;10627055;27;20060;-80
2022/12/05 01:02:20;;;;;;;15.27;8.03;;;6.60;99.90;;;4.25;98.74;100709.81;10613679;27;20469;-80
2022/12/05 01:07:22;;;;;;;16.73;9.03;;;6.50;99.90;;;4.25;98.61;100721.16;10588549;27;20060;-80
2022/12/05 01:12:27;;;;;;;16.63;9.07;;;6.50;99.90;;;4.20;98.84;100706.72;10576607;27;20155;-80
2022/12/05 01:17:30;;;;;;;17.67;9.20;;;6.40;99.90;;;4.18;98.92;100705.97;10597194;27;20059;-80
2022/12/05 01:22:33;;;;;;;18.37;9.10;;;6.40;99.90;;;4.17;99.06;100699.03;10596013;27;20062;-80
2022/12/05 01:27:36;;;;;;;14.43;8.03;;;6.40;99.90;;;4.14;99.03;100688.72;10635795;27;20458;-80
2022/12/05 01:32:39;;;;;;;14.23;7.80;;;6.40;99.90;;;4.12;99.18;100703.78;10593923;27;20058;-80
2022/12/05 01:37:41;;;;;;;13.17;7.67;;;6.40;99.90;;;4.11;99.15;100695.06;10604708;27;20465;-80
2022/12/05 01:42:44;;;;;;;13.37;6.90;;;6.40;99.90;;;4.11;99.35;100700.34;10569650;27;20062;-80
2022/12/05 01:47:47;;;;;;;14.40;7.03;;;6.40;99.90;;;4.09;99.05;100688.25;10609621;27;20052;-80
2022/12/05 01:52:50;;;;;;;12.67;7.30;;;6.40;99.90;;;4.09;99.22;100685.63;10612088;27;20067;-80
2022/12/05 01:57:56;;;;;;;13.00;6.77;;;6.40;99.90;;;4.07;99.09;100683.09;10584076;27;20059;-80
2022/12/05 02:03:06;;;;;;;12.23;6.80;;;6.40;99.90;;;4.06;99.15;100688.47;10600095;27;20118;-80
2022/12/05 02:08:11;;;;;;;11.63;6.67;;;6.30;99.90;;;4.07;99.24;100677.84;10608524;27;20392;-81
2022/12/05 02:13:58;;;;;;;11.43;6.83;;;6.40;99.90;;;4.07;99.27;100692.78;10595352;27;20058;-80
2022/12/05 02:19:31;;;;;;;13.27;6.77;;;6.30;99.90;;;4.07;99.35;100693.59;10574033;27;20055;-81
2022/12/05 02:25:00;;;;;;;12.83;6.63;;;6.30;99.90;;;4.07;99.34;100698.88;10607683;27;20101;-81
2022/12/05 02:30:09;;;;;;;13.13;6.57;;;6.30;99.90;;;4.04;99.36;100699.13;10609421;27;20058;-81
2022/12/05 02:35:17;;;;;;;10.13;5.80;;;6.30;99.90;;;4.02;99.27;100701.03;10594654;27;20058;-80
2022/12/05 02:40:42;;;;;;;12.70;6.83;;;6.30;99.90;;;4.05;99.40;100702.59;10578748;27;20066;-80
2022/12/05 02:45:51;;;;;;;11.23;5.47;;;6.30;99.90;;;4.00;99.36;100709.00;10601218;27;20066;-80
2022/12/05 02:50:59;;;;;;;11.10;5.63;;;6.30;99.90;;;3.98;99.42;100710.09;10626344;27;20062;-80
2022/12/05 02:56:04;;;;;;;9.03;4.67;;;6.20;99.90;;;3.94;99.03;100709.47;10589737;27;20062;-80
2022/12/05 03:01:07;;;;;;;8.97;5.33;;;6.20;99.90;;;3.93;99.64;100715.69;10594017;27;20503;-80
2022/12/05 03:06:31;;;;;;;11.07;4.83;;;6.20;99.90;;;3.93;99.51;100713.06;10551854;27;20063;-80
2022/12/05 03:11:46;;;;;;;9.00;4.20;;;6.20;99.90;;;3.92;99.99;100715.81;10577111;27;20059;-80
2022/12/05 03:16:53;;;;;;;10.03;5.10;;;6.20;99.90;;;3.91;100.00;100712.34;10614430;27;20062;-80
2022/12/05 03:22:14;;;;;;;10.03;4.53;;;6.20;99.90;;;3.92;100.00;100716.63;10572441;27;20055;-80
2022/12/05 03:27:50;;;;;;;9.03;5.30;;;6.20;99.90;;;3.92;100.00;100711.38;10578196;27;20531;-80
2022/12/05 03:33:06;;;;;;;9.73;4.93;;;6.20;99.90;;;3.94;100.00;100714.72;10615872;27;20064;-80
2022/12/05 03:38:17;;;;;;;10.47;5.67;;;6.20;99.90;;;3.92;100.00;100716.63;10592669;27;20060;-80
2022/12/05 03:43:44;;;;;;;9.57;5.22;;;6.20;99.90;;;3.92;100.00;100711.38;10608198;27;20503;-80
2022/12/05 03:48:47;;;;;;;10.33;5.33;;;6.20;99.90;;;3.95;100.00;100715.56;10620884;27;20051;-80
2022/12/05 03:54:12;;;;;;;12.30;5.70;;;6.20;99.90;;;3.95;100.00;100713.75;10605128;27;20052;-80
2022/12/05 03:59:32;;;;;;;10.00;5.00;;;6.30;99.90;;;3.96;100.00;100714.63;10607693;27;20171;-80
2022/12/05 04:04:48;;;;;;;9.33;4.87;;;6.20;99.90;;;3.96;100.00;100714.63;10590346;27;20503;-80
2022/12/05 04:09:58;;;;;;;9.00;4.17;;;6.30;99.90;;;3.97;100.00;100714.50;10600208;27;20491;-80
2022/12/05 04:15:21;;;;;;;9.75;4.93;;;6.30;99.90;;;3.95;100.00;100700.63;10598616;27;20487;-80
2022/12/05 04:26:22;;;;;;;7.97;4.07;;;6.20;99.90;;;3.95;100.00;100707.66;10603612;27;20052;-80
2022/12/05 04:31:38;;;;;;;10.93;5.03;;;6.20;99.90;;;3.95;100.00;100718.19;10588916;27;20059;-80
2022/12/05 04:36:54;;;;;;;11.30;5.70;;;6.20;99.90;;;3.95;100.00;100711.13;10583321;27;20109;-80
2022/12/05 04:42:03;;;;;;;12.37;6.03;;;6.20;99.90;;;3.94;100.00;100712.09;10590719;27;20056;-80
2022/12/05 04:47:10;;;;;;;11.00;6.10;;;6.20;99.90;;;3.94;100.00;100711.25;10607299;27;20064;-80
2022/12/05 04:52:14;;;;;;;12.20;5.60;;;6.20;99.90;;;3.94;100.00;100704.19;10611669;27;20109;-79
2022/12/05 04:57:25;;;;;;;11.47;6.17;;;6.20;99.90;;;3.93;100.00;100702.53;10592670;27;20458;-80
2022/12/05 05:02:39;;;;;;;11.20;6.30;;;6.20;99.90;;;3.92;100.00;100700.03;10577013;27;20422;-80
2022/12/05 05:07:52;;;;;;;17.93;11.03;;;6.20;99.90;;;3.92;100.00;100698.22;10612266;27;20064;-82
2022/12/05 05:12:55;;;;;;;15.70;7.83;;;6.20;99.90;;;3.93;100.00;100702.53;10580259;27;20141;-80
2022/12/05 05:17:58;;;;;;;30.90;18.27;;;6.20;99.90;;;3.92;100.00;100703.50;10600530;27;20530;-79
2022/12/05 05:23:01;;;;;;;21.33;12.30;;;6.20;99.90;;;3.95;100.00;100711.13;10581055;27;20105;-80
2022/12/05 05:28:04;;;;;;;21.70;13.33;;;6.20;99.90;;;3.96;100.00;100722.53;10622374;27;20056;-80
2022/12/05 05:33:07;;;;;;;26.07;16.07;;;6.20;99.90;;;3.95;100.00;100705.03;10571585;27;20055;-80
2022/12/05 05:38:10;;;;;;;18.87;10.47;;;6.20;99.90;;;3.93;100.00;100709.59;10617161;27;20051;-80
2022/12/05 05:43:13;;;;;;;14.70;7.97;;;6.20;99.90;;;3.94;100.00;100725.25;10612593;27;20048;-80
2022/12/05 05:48:16;;;;;;;20.23;10.30;;;6.20;99.90;;;3.93;100.00;100717.47;10563913;27;20515;-80
2022/12/05 05:53:19;;;;;;;22.63;11.10;;;6.20;99.90;;;3.95;100.00;100716.38;10592151;27;20105;-80
2022/12/05 05:58:22;;;;;;;17.57;8.93;;;6.20;99.90;;;3.95;100.00;100729.53;10594574;27;20056;-80
2022/12/05 06:03:26;;;;;;;14.30;7.80;;;6.20;99.90;;;3.95;100.00;100721.66;10594193;27;20110;-80
2022/12/05 06:08:32;;;;;;;13.30;7.27;;;6.20;99.90;;;3.96;100.00;100736.50;10611498;27;20059;-80
2022/12/05 06:13:36;;;;;;;12.10;7.57;;;6.20;99.90;;;3.98;100.00;100733.75;10631216;27;20511;-80
2022/12/05 06:18:39;;;;;;;15.57;7.70;;;6.20;99.90;;;3.98;100.00;100739.84;10608896;27;20062;-80
2022/12/05 06:23:42;;;;;;;15.23;8.03;;;6.30;99.90;;;4.00;100.00;100745.00;10594610;27;20068;-80
2022/12/05 06:28:45;;;;;;;13.97;8.30;;;6.30;99.90;;;4.01;100.00;100747.50;10578447;27;20109;-80
2022/12/05 06:33:49;;;;;;;17.70;9.33;;;6.30;99.90;;;4.05;100.00;100752.56;10584915;27;20055;-80
2022/12/05 06:38:51;;;;;;;15.73;8.47;;;6.30;99.90;;;4.05;100.00;100757.81;10605101;27;20056;-81
2022/12/05 06:43:57;;;;;;;16.13;7.43;;;6.30;99.90;;;4.07;100.00;100755.91;10624363;27;20058;-80
2022/12/05 06:49:04;;;;;;;17.70;8.60;;;6.30;99.90;;;4.05;100.00;100755.19;10599947;27;20060;-80
2022/12/05 06:54:07;;;;;;;15.13;7.97;;;6.30;99.90;;;4.03;100.00;100750.03;10552066;27;20060;-81
2022/12/05 06:59:10;;;;;;;14.63;8.13;;;6.30;99.90;;;4.09;100.00;100769.78;10551136;28;20083;-81
2022/12/05 07:04:22;;;;;;;16.37;9.60;;;6.30;99.90;;;4.11;100.00;100757.34;10592904;27;20078;-81
2022/12/05 07:09:44;;;;;;;16.80;8.63;;;6.30;99.90;;;4.13;100.00;100768.59;10628686;27;20098;-80
2022/12/05 07:14:47;;;;;;;;;;;6.40;99.90;;;4.16;100.00;100776.28;10582976;27;20108;-81
2022/12/05 07:19:52;;;;;;;28.70;11.90;;;6.40;99.90;;;4.17;100.00;100789.31;10580813;27;19927;-81
2022/12/05 07:24:55;;;;;;;23.03;10.63;;;6.50;99.90;;;4.17;100.00;100778.78;10592697;27;20059;-81
2022/12/05 07:29:58;;;;;;;17.30;8.83;;;6.50;99.90;;;4.23;100.00;100788.03;10625745;27;20059;-81
2022/12/05 07:35:01;;;;;;;16.20;9.63;;;6.50;99.90;;;4.24;100.00;100785.28;10625532;27;20059;-81
2022/12/05 07:40:05;;;;;;;17.63;9.70;;;6.50;99.90;;;4.28;100.00;100780.63;10594929;27;20062;-80
2022/12/05 07:45:09;;;;;;;16.10;9.47;;;6.50;99.90;;;4.32;100.00;100789.13;10625675;27;20515;-81
2022/12/05 07:50:13;;;;;;;22.37;10.90;;;6.50;99.90;;;4.34;100.00;100793.34;10609530;27;20109;-80
2022/12/05 07:55:16;;;;;;;18.20;9.97;;;6.60;99.90;;;4.39;100.00;100798.28;10625683;27;20142;-81
2022/12/05 08:00:21;;;;;;;14.87;8.70;;;6.60;99.90;;;4.44;100.00;100802.25;10624562;27;20080;-79
2022/12/05 08:05:24;;;;;;;17.67;9.03;;;6.70;99.90;;;4.51;100.00;100800.81;10611042;27;20424;-79
2022/12/05 08:10:27;;;;;;;15.20;8.40;;;6.70;99.90;;;4.56;100.00;100803.97;10576530;27;20400;-79
2022/12/05 08:15:34;;;;;;;17.83;10.23;;;6.80;99.90;;;4.62;100.00;100800.03;10607810;27;20094;-80
2022/12/05 08:20:37;;;;;;;14.73;7.83;;;6.90;99.90;;;4.69;100.00;100819.66;10610966;27;20146;-79
2022/12/05 08:25:40;;;;;;;15.83;9.20;;;6.90;99.90;;;4.75;100.00;100813.09;10597528;27;20485;-79
2022/12/05 08:30:43;;;;;;;15.83;8.90;;;7.00;99.90;;;4.81;100.00;100825.81;10625845;27;20577;-79
2022/12/05 08:35:46;;;;;;;17.63;9.60;;;7.00;99.90;;;4.87;100.00;100825.34;10574241;27;20063;-79
2022/12/05 08:40:49;;;;;;;17.43;9.20;;;7.10;99.90;;;4.91;100.00;100825.94;10611046;27;20060;-79
2022/12/05 08:45:52;;;;;;;16.13;8.97;;;7.10;99.90;;;4.97;100.00;100821.03;10597537;27;20065;-79
2022/12/05 08:50:56;;;;;;;17.70;9.07;;;7.10;99.90;;;5.06;100.00;100815.09;10563987;28;20056;-79
2022/12/05 08:56:05;;;;;;;14.27;8.53;;;7.30;99.90;;;5.09;100.00;100820.09;10555329;28;20052;-80
2022/12/05 09:01:12;;;;;;;24.20;12.63;;;7.30;99.90;;;5.12;100.00;100813.78;10608498;27;20063;-79
2022/12/05 09:06:15;;;;;;;19.27;10.07;;;7.30;99.90;;;5.10;100.00;100811.28;10598586;27;20131;-79
2022/12/05 09:11:24;;;;;;;18.60;10.30;;;7.30;99.90;;;5.12;100.00;100811.16;10613843;27;20048;-81
2022/12/05 09:16:33;;;;;;;16.63;9.33;;;7.40;99.90;;;5.14;100.00;100806.59;10612327;27;20086;-79
2022/12/05 09:21:41;;;;;;;17.93;9.97;;;7.40;99.90;;;5.16;100.00;100803.81;10590467;27;20060;-80
2022/12/05 09:26:45;;;;;;;69.07;32.90;;;7.40;99.90;;;5.20;100.00;100800.00;10608667;27;20062;-79
2022/12/05 09:31:50;;;;;;;22.17;11.27;;;7.40;99.90;;;5.26;100.00;100791.63;10614386;27;20059;-79
2022/12/05 09:36:53;;;;;;;18.20;10.17;;;7.40;99.90;;;5.30;100.00;100793.06;10572563;28;20059;-79
2022/12/05 09:42:42;;;;;;;19.93;10.43;;;7.50;99.90;;;5.38;100.00;100790.66;10567159;27;20422;-79
2022/12/05 09:48:11;;;;;;;16.77;9.37;;;7.60;99.90;;;5.43;100.00;100780.59;10594382;27;20051;-79
2022/12/05 09:53:36;;;;;;;15.40;9.43;;;7.60;99.90;;;5.46;99.51;100783.03;10647991;27;20169;-79
2022/12/05 09:58:47;;;;;;;16.50;9.43;;;7.70;99.90;;;5.50;99.47;100787.06;10594646;27;20124;-79
2022/12/05 10:04:55;;;;;;;19.48;9.82;;;7.70;99.90;;;5.53;99.05;100780.72;10595871;27;20058;-79
2022/12/05 10:10:27;;;;;;;14.07;8.73;;;7.70;99.90;;;5.57;98.83;100780.34;10555559;28;20106;-79
2022/12/05 10:15:47;;;;;;;18.20;10.57;;;7.80;99.90;;;5.58;98.71;100779.41;10628799;27;20059;-78
2022/12/05 10:21:37;;;;;;;19.03;10.80;;;7.80;99.90;;;5.63;98.54;100777.22;10591945;27;20060;-79
2022/12/05 10:26:47;;;;;;;19.53;10.70;;;7.90;99.90;;;5.69;98.21;100761.88;10528992;27;20067;-79
2022/12/05 10:31:56;;;;;;;20.40;11.30;;;7.90;99.90;;;5.74;98.04;100757.91;10590462;27;20062;-79
2022/12/05 10:37:19;;;;;;;20.00;11.43;;;7.90;99.90;;;5.77;97.37;100755.03;10592889;27;20056;-79
2022/12/05 10:42:30;;;;;;;19.87;11.03;;;8.00;99.90;;;5.78;97.20;100742.69;10587548;27;20093;-79
2022/12/05 10:47:34;;;;;;;22.63;11.68;;;8.00;99.90;;;5.85;97.07;100743.88;10551528;28;20060;-79
2022/12/05 10:52:37;;;;;;;18.10;11.20;;;8.00;99.90;;;5.96;97.04;100741.22;10568955;27;20416;-79
2022/12/05 10:57:40;;;;;;;15.77;10.03;;;8.10;99.90;;;6.15;97.11;100733.47;10570778;27;20473;-79
2022/12/05 11:02:46;;;;;;;17.93;10.07;;;8.30;99.90;;;6.34;96.35;100718.75;10609508;27;20113;-79
2022/12/05 11:07:52;;;;;;;15.27;10.10;;;8.50;99.90;;;6.47;95.38;100719.41;10593999;27;20063;-79
2022/12/05 11:12:59;;;;;;;17.07;9.63;;;8.60;99.90;;;6.54;94.69;100717.94;10599325;27;20063;-79
2022/12/05 11:18:29;;;;;;;16.93;10.70;;;8.70;99.90;;;6.57;93.92;100715.03;10592973;27;20113;-79
2022/12/05 11:23:32;;;;;;;16.17;9.47;;;8.80;99.90;;;6.57;93.73;100704.47;10625985;27;20056;-79
2022/12/05 11:28:36;;;;;;;17.77;9.67;;;8.80;99.90;;;6.51;93.24;100709.44;10572591;27;20059;-79
2022/12/05 11:33:40;;;;;;;15.93;9.17;;;8.70;99.90;;;6.43;93.03;100696.88;10579629;27;20056;-79
2022/12/05 11:38:43;;;;;;;12.87;8.87;;;8.70;99.90;;;6.34;92.69;100692.38;10592926;27;20499;-79
2022/12/05 11:44:13;;;;;;;17.80;10.50;;;8.60;99.90;;;6.24;92.90;100688.81;10600199;27;20058;-79
2022/12/05 11:49:54;;;;;;;16.17;9.87;;;8.50;99.90;;;6.07;92.79;100685.78;10609463;27;20060;-79
2022/12/05 11:55:11;;;;;;;16.93;10.33;;;8.30;99.90;;;5.96;93.33;100677.91;10582914;28;20056;-81
2022/12/05 12:00:49;;;;;;;16.00;9.13;;;8.20;99.90;;;5.87;93.64;100673.34;10576614;27;20062;-79
2022/12/05 12:05:55;;;;;;;14.73;9.80;;;8.10;99.90;;;5.84;94.23;100677.09;10641702;27;20063;-77
2022/12/05 12:11:13;;;;;;;16.57;10.23;;;8.00;99.90;;;5.78;94.49;100677.59;10652008;27;20047;-79
2022/12/05 12:17:00;;;;;;;18.13;11.33;;;8.00;99.90;;;5.82;94.84;100670.28;10627173;27;20196;-79
2022/12/05 12:23:00;;;;;;;17.30;10.60;;;8.00;99.90;;;5.82;95.18;100655.28;10593748;27;20531;-79
2022/12/05 12:28:21;;;;;;;18.43;10.93;;;8.00;99.90;;;5.84;95.22;100669.19;10594051;27;20063;-79
2022/12/05 12:34:15;;;;;;;15.95;9.55;;;8.00;99.90;;;5.84;95.26;100666.53;10590198;27;20052;-79
2022/12/05 12:40:02;;;;;;;16.87;10.23;;;8.00;99.90;;;5.80;95.10;100657.19;10585810;27;20412;-79
2022/12/05 12:45:46;;;;;;;15.60;9.27;;;8.00;99.90;;;5.81;95.43;100663.31;10649355;27;20059;-79
2022/12/05 12:50:53;;;;;;;14.77;8.77;;;8.00;99.90;;;5.84;95.77;100657.81;10588551;27;20056;-79
2022/12/05 12:56:35;;;;;;;15.13;9.23;;;8.00;99.90;;;5.82;95.76;100652.66;10596082;27;20168;-79
2022/12/05 13:02:11;;;;;;;16.90;10.17;;;8.00;99.90;;;5.81;95.50;100650.13;10583559;27;20079;-79
2022/12/05 13:07:22;;;;;;;19.43;11.47;;;8.00;99.90;;;5.76;95.49;100644.41;10534801;27;20063;-79
2022/12/05 13:12:31;;;;;;;17.50;10.63;;;8.00;99.90;;;5.75;95.69;100643.56;10624904;27;20059;-79
2022/12/05 13:17:34;;;;;;;21.47;11.73;;;7.90;99.90;;;5.76;95.93;100639.97;10631969;27;20059;-79
2022/12/05 13:22:38;;;;;;;72.73;32.67;;;8.00;99.90;;;5.77;95.93;100633.72;10595701;27;20136;-79
2022/12/05 13:27:58;;;;;;;62.57;38.00;;;8.00;99.90;;;5.76;95.82;100628.59;10591055;27;20070;-79
2022/12/05 13:33:09;;;;;;;23.60;14.27;;;8.00;99.90;;;5.73;95.97;100632.31;10633085;27;20139;-79
2022/12/05 13:44:11;;;;;;;27.67;15.43;;;7.90;99.90;;;5.71;96.17;100625.50;10603382;27;20113;-78
2022/12/05 13:49:52;;;;;;;30.60;16.87;;;7.90;99.90;;;5.70;96.25;100639.63;10593883;27;20059;-79
2022/12/05 13:55:13;;;;;;;24.27;13.20;;;7.90;99.90;;;5.68;96.59;100646.81;10613157;27;20083;-79
2022/12/05 14:00:16;;;;;;;18.83;11.13;;;7.90;99.90;;;5.68;96.75;100647.66;10591796;27;20055;-79
2022/12/05 14:05:24;;;;;;;17.27;10.40;;;7.90;99.90;;;5.68;96.81;100647.66;10611783;27;20066;-79
2022/12/05 14:10:27;;;;;;;16.60;9.90;;;7.90;99.90;;;5.72;97.04;100656.16;10570563;28;20063;-79
2022/12/05 14:15:38;;;;;;;20.60;12.03;;;7.90;99.90;;;5.71;97.10;100643.94;10604262;27;20056;-79
2022/12/05 14:21:08;;;;;;;19.73;10.77;;;7.90;99.90;;;5.69;96.97;100630.88;10568914;28;20519;-79
2022/12/05 14:26:38;;;;;;;15.87;10.33;;;7.90;99.90;;;5.68;97.01;100636.28;10616263;27;20055;-79
2022/12/05 14:32:09;;;;;;;17.57;10.83;;;7.90;99.90;;;5.64;97.13;100641.81;10569515;28;20114;-79
2022/12/05 14:37:15;;;;;;;19.80;11.50;;;7.90;99.90;;;5.61;97.33;100642.06;10569493;27;20067;-79
2022/12/05 14:42:35;;;;;;;26.17;13.90;;;7.80;99.90;;;5.59;97.58;100640.53;10568316;28;20110;-79
2022/12/05 14:47:37;;;;;;;24.83;14.70;;;7.80;99.90;;;5.58;97.65;100631.78;10569323;27;20051;-80
2022/12/05 14:52:41;;;;;;;23.87;14.33;;;7.80;99.90;;;5.54;97.66;100625.06;10585826;27;20082;-80
2022/12/05 14:57:48;;;;;;;24.57;13.90;;;7.80;99.90;;;5.53;97.93;100627.84;10557459;28;20062;-80
2022/12/05 15:02:54;;;;;;;25.33;15.03;;;7.80;99.90;;;5.54;98.31;100624.22;10552825;27;20062;-80
2022/12/05 15:07:59;;;;;;;19.00;11.50;;;7.80;99.90;;;5.53;98.53;100622.56;10625666;27;20457;-80
2022/12/05 15:13:17;;;;;;;22.67;13.40;;;7.70;99.90;;;5.48;98.35;100622.94;10595875;27;20059;-79
2022/12/05 15:18:44;;;;;;;21.70;11.80;;;7.70;99.90;;;5.46;98.74;100622.22;10569246;28;20056;-80
2022/12/05 15:23:58;;;;;;;29.77;20.87;;;7.70;99.90;;;5.45;99.24;100612.63;10577128;27;20462;-80
2022/12/05 15:29:06;;;;;;;32.93;17.50;;;7.70;99.90;;;5.48;99.29;100614.19;10610252;27;20161;-80
2022/12/05 15:34:53;;;;;;;51.20;30.50;;;7.70;99.90;;;5.48;99.39;100603.66;10606864;27;20055;-80
2022/12/05 15:40:07;;;;;;;27.67;13.70;;;7.70;99.90;;;5.45;99.51;100604.72;10584636;27;20083;-79
2022/12/05 15:45:13;;;;;;;129.77;70.60;;;7.70;99.90;;;5.45;99.81;100596.81;10607060;27;20558;-80
2022/12/05 15:50:51;;;;;;;53.70;32.43;;;7.70;99.90;;;5.45;100.00;100586.25;10609726;27;20059;-79
2022/12/05 15:56:04;;;;;;;61.93;34.03;;;7.70;99.90;;;5.45;100.00;100572.25;10605427;27;20099;-79
2022/12/05 16:01:24;;;;;;;38.80;20.50;;;7.70;99.90;;;5.43;100.00;100600.53;10592390;27;20427;-79
2022/12/05 16:06:53;;;;;;;23.60;14.47;;;7.60;99.90;;;5.42;100.00;100609.41;10616904;27;20495;-79
2022/12/05 16:12:15;;;;;;;25.47;14.67;;;7.60;99.90;;;5.44;100.00;100596.94;10604628;27;20495;-79
2022/12/05 16:17:20;;;;;;;23.50;13.73;;;7.60;99.90;;;5.42;100.00;100589.16;10609745;27;20085;-79
2022/12/05 16:22:27;;;;;;;21.30;12.33;;;7.60;99.90;;;5.41;100.00;100598.03;10593995;27;20572;-79
2022/12/05 16:27:38;;;;;;;21.53;12.53;;;7.60;99.90;;;5.40;100.00;100595.50;10610959;27;20065;-79
2022/12/05 16:32:43;;;;;;;24.77;14.13;;;7.60;99.90;;;5.41;100.00;100599.84;10604335;27;20541;-79
2022/12/05 16:37:46;;;;;;;19.87;10.97;;;7.60;99.90;;;5.44;100.00;100597.78;10610127;27;20261;-79
2022/12/05 16:43:05;;;;;;;23.40;11.97;;;7.60;99.90;;;5.46;100.00;100606.41;10599550;27;20446;-79
2022/12/05 16:48:23;;;;;;;28.37;15.03;;;7.60;99.90;;;5.49;100.00;100602.69;10604175;27;20576;-78
2022/12/05 16:53:31;;;;;;;26.83;14.43;;;7.60;99.90;;;5.50;100.00;100597.28;10613778;27;20487;-78
2022/12/05 16:58:55;;;;;;;20.83;12.48;;;7.70;99.90;;;5.52;100.00;100592.72;10616629;27;20056;-78
2022/12/05 17:03:58;;;;;;;29.65;14.63;;;7.70;99.90;;;5.55;100.00;100603.00;10597324;27;20083;-78
2022/12/05 17:09:01;;;;;;;20.03;11.03;;;7.80;99.90;;;5.59;100.00;100596.53;10602041;27;20056;-78
2022/12/05 17:14:06;;;;;;;26.77;14.63;;;7.80;99.90;;;5.59;100.00;100583.34;10609418;27;20051;-78
2022/12/05 17:19:13;;;;;;;27.17;13.27;;;7.80;99.90;;;5.58;100.00;100575.56;10612921;27;20423;-78
2022/12/05 17:24:17;;;;;;;26.20;11.77;;;7.80;99.90;;;5.59;100.00;100567.53;10613859;27;20055;-78
2022/12/05 17:29:20;;;;;;;25.00;13.73;;;7.80;99.90;;;5.61;100.00;100562.13;10586544;27;20155;-78
2022/12/05 17:34:23;;;;;;;21.77;13.53;;;7.90;99.90;;;5.61;100.00;100549.78;10615549;27;20526;-78
2022/12/05 17:39:26;;;;;;;25.10;14.53;;;7.90;99.90;;;5.61;100.00;100552.41;10618719;27;20063;-79
2022/12/05 17:44:30;;;;;;;25.77;14.03;;;7.80;99.90;;;5.61;100.00;100541.03;10573296;28;20503;-77
2022/12/05 17:49:33;;;;;;;29.17;15.73;;;7.80;99.90;;;5.62;100.00;100547.97;10582635;27;20538;-78
2022/12/05 17:54:36;;;;;;;27.30;14.30;;;7.80;99.90;;;5.62;100.00;100550.63;10633859;27;20060;-78
2022/12/05 17:59:39;;;;;;;23.50;13.73;;;7.80;99.90;;;5.66;100.00;100561.75;10595136;27;20067;-79
2022/12/05 18:04:42;;;;;;;25.73;13.97;;;7.90;99.90;;;5.69;100.00;100566.75;10642784;27;20064;-79
2022/12/05 18:09:45;;;;;;;23.73;12.97;;;7.90;99.90;;;5.70;100.00;100566.66;10606808;27;20055;-77
2022/12/05 18:14:48;;;;;;;24.63;13.07;;;7.90;99.90;;;5.71;100.00;100563.03;10597332;27;20066;-77
2022/12/05 18:19:51;;;;;;;23.27;12.63;;;7.90;99.90;;;5.74;100.00;100554.03;10609980;27;20059;-77
2022/12/05 18:24:55;;;;;;;22.37;12.43;;;7.90;99.90;;;5.76;100.00;100557.41;10630758;27;20089;-77
2022/12/05 18:29:59;;;;;;;31.10;15.17;;;7.90;99.90;;;5.75;100.00;100548.63;10599715;27;20056;-77
2022/12/05 18:35:04;;;;;;;38.53;17.20;;;8.00;99.90;;;5.78;100.00;100537.00;10588205;27;20934;-77
2022/12/05 18:40:14;;;;;;;36.93;17.40;;;8.00;99.90;;;5.78;100.00;100542.28;10589935;27;20125;-77
2022/12/05 18:45:17;;;;;;;28.53;14.57;;;8.00;99.90;;;5.78;100.00;100544.91;10585996;27;20507;-77
2022/12/05 18:50:20;;;;;;;28.53;14.50;;;8.00;99.90;;;5.82;100.00;100533.16;10591065;27;20384;-77
2022/12/05 18:55:23;;;;;;;64.77;27.17;;;8.00;99.90;;;5.83;100.00;100532.19;10587937;27;20139;-78
2022/12/05 19:00:45;;;;;;;27.27;14.50;;;8.00;99.90;;;5.84;100.00;100539.13;10565322;27;20101;-78
2022/12/05 19:05:48;;;;;;;31.27;15.23;;;8.10;99.90;;;5.86;100.00;100524.00;10587470;27;20098;-77
2022/12/05 19:10:51;;;;;;;52.73;21.50;;;8.10;99.90;;;5.87;100.00;100530.94;10588045;27;20067;-77
2022/12/05 19:16:02;;;;;;;50.20;23.23;;;8.10;99.90;;;5.88;100.00;100524.72;10591016;27;20097;-77
2022/12/05 19:21:06;;;;;;;39.63;19.27;;;8.10;99.90;;;5.89;100.00;100521.94;10618964;27;20494;-78
2022/12/05 19:26:09;;;;;;;48.90;22.40;;;8.10;99.90;;;5.90;100.00;100523.59;10587334;27;20242;-77
2022/12/05 19:31:21;;;;;;;39.97;16.47;;;8.10;99.90;;;5.91;100.00;100513.91;10573459;27;20059;-78
2022/12/05 19:36:28;;;;;;;35.10;18.50;;;8.10;99.90;;;5.92;100.00;100512.94;10609664;27;20175;-78
2022/12/05 19:41:31;;;;;;;31.60;15.97;;;8.10;99.90;;;5.93;100.00;100513.78;10598221;27;20060;-78
2022/12/05 19:46:35;;;;;;;30.27;16.20;;;8.20;99.90;;;5.89;100.00;100514.03;10574443;27;20091;-78
2022/12/05 19:51:38;;;;;;;24.73;13.67;;;8.10;99.90;;;5.86;100.00;100508.16;10595279;27;20060;-79
2022/12/05 19:56:41;;;;;;;25.63;13.07;;;8.10;99.90;;;5.81;100.00;100497.16;10599639;27;20066;-78
2022/12/05 20:01:44;;;;;;;30.13;15.67;;;8.00;99.90;;;5.78;100.00;100489.53;10599887;27;20059;-79
2022/12/05 20:06:48;;;;;;;33.50;16.07;;;8.00;99.90;;;5.74;100.00;100491.56;10607828;27;20063;-79
2022/12/05 20:11:51;;;;;;;25.07;13.77;;;7.90;99.90;;;5.74;100.00;100493.38;10578080;27;20056;-79
2022/12/05 20:16:59;;;;;;;42.30;20.10;;;7.90;99.90;;;5.72;100.00;100493.50;10572012;27;20095;-79
2022/12/05 20:22:02;;;;;;;50.43;19.47;;;7.90;99.90;;;5.73;100.00;100502.25;10597316;27;20105;-79
2022/12/05 20:27:06;;;;;;;40.17;18.43;;;7.90;99.90;;;5.73;100.00;100496.97;10625421;27;20418;-79
2022/12/05 20:32:09;;;;;;;29.17;14.97;;;7.90;99.90;;;5.75;100.00;100493.25;10622537;27;20052;-79
2022/12/05 20:37:12;;;;;;;31.83;14.67;;;7.90;99.90;;;5.76;100.00;100487.03;10586968;27;20059;-79
2022/12/05 20:42:14;;;;;;;45.17;18.10;;;8.00;99.90;;;5.78;100.00;100473.72;10594459;27;20082;-79
2022/12/05 20:47:17;;;;;;;34.97;16.60;;;8.00;99.90;;;5.77;100.00;100472.03;10573903;27;20403;-79
2022/12/05 20:52:20;;;;;;;31.63;15.23;;;7.90;99.90;;;5.77;100.00;100466.75;10607105;27;20091;-79
2022/12/05 20:57:23;;;;;;;41.77;16.83;;;7.90;99.90;;;5.78;100.00;100468.44;10634366;27;20064;-79
2022/12/05 21:02:26;;;;;;;38.63;17.13;;;8.00;99.90;;;5.77;100.00;100467.59;10591554;27;20137;-79
2022/12/05 21:07:29;;;;;;;43.13;18.57;;;7.90;99.90;;;5.76;100.00;100459.81;10627232;27;20051;-79
2022/12/05 21:12:32;;;;;;;35.47;16.80;;;7.90;99.90;;;5.75;100.00;100444.94;10592694;27;20585;-79
2022/12/05 21:17:35;;;;;;;45.63;20.33;;;7.90;99.90;;;5.76;100.00;100455.38;10561751;27;20056;-79
2022/12/05 21:22:38;;;;;;;39.67;17.03;;;7.90;99.90;;;5.75;100.00;100452.84;10593602;27;20055;-79
2022/12/05 21:27:40;;;;;;;36.23;16.87;;;7.90;99.90;;;5.76;100.00;100438.72;10600634;27;20058;-79